RUNWAY INFORMATION
Runway Length Width Elevation Displaced
Threshold
Heading | Runway Length Width Elevation Displaced
Threshold
Heading
09 4800 ft 148 ft 303 ft 33 ft 88 | 27 4800 ft 148 ft 334 ft 33 ft 268

 AIRPORT FREQUENCIES
Type APP Name APP Frequency 128.65 MHZ
Type ATIS Name ATIS Frequency 109.4 MHZ
Type GND Name GND Frequency 121.8 MHZ
Type TWR Name TWR Frequency 119.95 MHZ

 AIRPORT NEAR NAVIGATION AIDS
Type NDB Name Guernsey Frequency 361 KHZ
Type VOR-DME Name Guernsey Frequency 109400 KHZ
Type NDB Name Guernsey Frequency 361 KHZ

 METAR AND TAF INFORMATION
METAR FOR EGJB
ADDS - METARS form results

(1334 UTC 25 June 2021)
Data provider http://aviationweather.gov/metar/data/
 
METAR text: EGJB 251320Z 28010KT 3000 VCFG FEW000 BKN002 BKN025 15/15 Q1018
Conditions at: EGJB (GUERNSEY AIRPORT, GB) observed 1320 UTC 25 June 2021
Temperature: 15.0°C (59°F)
Dewpoint: 15.0°C (59°F) [RH = 100%]
Pressure (altimeter): 30.06 inches Hg (1018.0 mb)
Winds: from the W (280 degrees) at 12 MPH (10 knots; 5.1 m/s)
Visibility: 1.86 miles (2.99 km)
Ceiling: 200 feet AGL
Clouds: few clouds at 0 feet AGL
broken clouds at 200 feet AGL
broken clouds at 2500 feet AGL
Weather: VCFG  (fog in vicinity)

METAR text: EGJB 251250Z 27011KT 2800 1400SW R27/1400 VCFG FEW000 BKN001 15/15 Q1018
Conditions at: EGJB (GUERNSEY AIRPORT, GB) observed 1250 UTC 25 June 2021
Temperature: 15.0°C (59°F)
Dewpoint: 15.0°C (59°F) [RH = 100%]
Pressure (altimeter): 30.06 inches Hg (1018.0 mb)
Winds: from the W (270 degrees) at 13 MPH (11 knots; 5.7 m/s)
Visibility: 1.74 miles (2.80 km)
Ceiling: 100 feet AGL
Clouds: few clouds at 0 feet AGL
broken clouds at 100 feet AGL
Weather: VCFG  (fog in vicinity)

Forecast for: EGJB (GUERNSEY AIRPORT, GB)
Text: TAF EGJB 251100Z 2512/2521 26011KT 0300 -DZ FG BKN000
Forecast period: 1200 to 1300 UTC 25 June 2021
Forecast type: FROM: standard forecast or significant change
Winds: from the W (260 degrees) at 13 MPH (11 knots; 5.7 m/s)
Visibility: 0.19 miles (0.31 km)
Ceiling: 0 feet AGL
Clouds: broken clouds at 0 feet AGL
Weather: -DZ FG  (light drizzle, fog)
Text: PROB40
Forecast period: 1200 to 1400 UTC 25 June 2021
Forecast type: TEMPORARY: The following changes expected for less than half the time period
Visibility: 0.93 miles (1.50 km)
Ceiling: 100 feet AGL
Clouds: broken clouds at 100 feet AGL
Weather: BR  (mist)
Text: TEMPO 2512/2514 1500 BR BKN001
Forecast period: 1300 to 2100 UTC 25 June 2021
Forecast type: BECOMING: Conditions expected to become as follows by 1500 UTC 25 June 2021
Winds: from the W (260 degrees) at 13 MPH (11 knots; 5.7 m/s)
Visibility: 6 or more miles (10+ km)
Ceiling: 2000 feet AGL
Clouds: broken clouds at 2000 feet AGL
Weather: NSW  (no significant weather)



© 2013 - 2021, FlightSimLog.org - Powered by Virtual Airlines Manager